sensor_id;sensor_type;location;lat;lon;timestamp;pressure;altitude;pressure_sealevel;temperature;humidity
21960;BME280;11144;43.030;25.108;2022-10-23T00:00:35;99404.00;;;10.76;100.00
21960;BME280;11144;43.030;25.108;2022-10-23T00:02:08;99402.97;;;10.80;100.00
21960;BME280;11144;43.030;25.108;2022-10-23T00:03:43;99415.28;;;10.81;100.00
21960;BME280;11144;43.030;25.108;2022-10-23T00:05:16;99410.75;;;10.85;100.00
21960;BME280;11144;43.030;25.108;2022-10-23T00:06:49;99411.59;;;10.85;100.00
21960;BME280;11144;43.030;25.108;2022-10-23T00:08:23;99409.88;;;10.84;100.00
21960;BME280;11144;43.030;25.108;2022-10-23T00:09:55;99413.50;;;10.82;100.00
21960;BME280;11144;43.030;25.108;2022-10-23T00:11:29;99422.53;;;10.76;100.00
21960;BME280;11144;43.030;25.108;2022-10-23T00:13:02;99423.50;;;10.74;100.00
21960;BME280;11144;43.030;25.108;2022-10-23T00:14:35;99419.16;;;10.71;100.00
21960;BME280;11144;43.030;25.108;2022-10-23T00:16:08;99427.16;;;10.70;100.00
21960;BME280;11144;43.030;25.108;2022-10-23T00:17:42;99422.72;;;10.70;100.00
21960;BME280;11144;43.030;25.108;2022-10-23T00:19:17;99420.97;;;10.71;100.00
21960;BME280;11144;43.030;25.108;2022-10-23T00:20:50;99419.16;;;10.71;100.00
21960;BME280;11144;43.030;25.108;2022-10-23T00:22:23;99413.88;;;10.71;100.00
21960;BME280;11144;43.030;25.108;2022-10-23T00:23:56;99434.00;;;10.75;100.00
21960;BME280;11144;43.030;25.108;2022-10-23T00:25:29;99434.81;;;10.77;100.00
21960;BME280;11144;43.030;25.108;2022-10-23T00:27:03;99432.19;;;10.77;100.00
21960;BME280;11144;43.030;25.108;2022-10-23T00:28:36;99431.31;;;10.77;100.00
21960;BME280;11144;43.030;25.108;2022-10-23T00:30:11;99439.25;;;10.77;100.00
21960;BME280;11144;43.030;25.108;2022-10-23T00:31:44;99434.81;;;10.77;100.00
21960;BME280;11144;43.030;25.108;2022-10-23T00:33:18;99436.44;;;10.81;100.00
21960;BME280;11144;43.030;25.108;2022-10-23T00:34:52;99437.41;;;10.79;100.00
21960;BME280;11144;43.030;25.108;2022-10-23T00:36:25;99443.44;;;10.82;100.00
21960;BME280;11144;43.030;25.108;2022-10-23T00:37:59;99446.09;;;10.82;100.00
21960;BME280;11144;43.030;25.108;2022-10-23T00:39:31;99446.91;;;10.84;100.00
21960;BME280;11144;43.030;25.108;2022-10-23T00:41:06;99441.63;;;10.84;100.00
21960;BME280;11144;43.030;25.108;2022-10-23T00:42:39;99440.00;;;10.80;100.00
21960;BME280;11144;43.030;25.108;2022-10-23T00:46:19;99439.03;;;10.58;100.00
21960;BME280;11144;43.030;25.108;2022-10-23T00:47:52;99448.78;;;10.56;100.00
21960;BME280;11144;43.030;25.108;2022-10-23T00:49:26;99456.72;;;10.56;100.00
21960;BME280;11144;43.030;25.108;2022-10-23T00:51:00;99440.00;;;10.56;100.00
21960;BME280;11144;43.030;25.108;2022-10-23T00:52:36;99448.88;;;10.53;100.00
21960;BME280;11144;43.030;25.108;2022-10-23T00:54:13;99440.28;;;10.47;100.00
21960;BME280;11144;43.030;25.108;2022-10-23T00:55:56;99442.19;;;10.43;100.00
21960;BME280;11144;43.030;25.108;2022-10-23T00:57:30;99428.56;;;10.29;100.00
21960;BME280;11144;43.030;25.108;2022-10-23T00:59:03;99451.13;;;10.39;100.00
21960;BME280;11144;43.030;25.108;2022-10-23T01:00:44;99442.28;;;10.40;100.00
21960;BME280;11144;43.030;25.108;2022-10-23T01:02:18;99445.13;;;10.34;100.00
21960;BME280;11144;43.030;25.108;2022-10-23T01:03:53;99436.91;;;10.17;100.00
21960;BME280;11144;43.030;25.108;2022-10-23T01:05:44;99444.00;;;10.15;100.00
21960;BME280;11144;43.030;25.108;2022-10-23T01:07:27;99450.06;;;10.18;100.00
21960;BME280;11144;43.030;25.108;2022-10-23T01:09:08;99448.31;;;10.17;100.00
21960;BME280;11144;43.030;25.108;2022-10-23T01:10:50;99445.63;;;10.19;100.00
21960;BME280;11144;43.030;25.108;2022-10-23T01:12:30;99451.69;;;10.22;100.00
21960;BME280;11144;43.030;25.108;2022-10-23T01:14:14;99453.31;;;10.26;100.00
21960;BME280;11144;43.030;25.108;2022-10-23T01:15:53;99459.34;;;10.30;100.00
21960;BME280;11144;43.030;25.108;2022-10-23T01:17:34;99457.53;;;10.32;100.00
21960;BME280;11144;43.030;25.108;2022-10-23T01:19:19;99464.34;;;10.39;100.00
21960;BME280;11144;43.030;25.108;2022-10-23T01:20:57;99465.97;;;10.43;100.00
21960;BME280;11144;43.030;25.108;2022-10-23T01:23:09;99466.16;;;10.37;100.00
21960;BME280;11144;43.030;25.108;2022-10-23T01:24:50;99442.09;;;10.20;100.00
21960;BME280;11144;43.030;25.108;2022-10-23T01:26:38;99468.00;;;10.35;100.00
21960;BME280;11144;43.030;25.108;2022-10-23T01:28:25;99470.56;;;10.36;100.00
21960;BME280;11144;43.030;25.108;2022-10-23T01:30:03;99480.22;;;10.39;100.00
21960;BME280;11144;43.030;25.108;2022-10-23T01:31:45;99479.28;;;10.40;100.00
21960;BME280;11144;43.030;25.108;2022-10-23T01:33:24;99458.50;;;10.29;100.00
21960;BME280;11144;43.030;25.108;2022-10-23T01:35:02;99478.47;;;10.38;100.00
21960;BME280;11144;43.030;25.108;2022-10-23T01:36:39;99466.53;;;10.26;100.00
21960;BME280;11144;43.030;25.108;2022-10-23T01:38:16;99485.69;;;10.33;100.00
21960;BME280;11144;43.030;25.108;2022-10-23T01:39:53;99492.59;;;10.37;100.00
21960;BME280;11144;43.030;25.108;2022-10-23T01:41:30;99484.72;;;10.35;100.00
21960;BME280;11144;43.030;25.108;2022-10-23T01:43:11;99491.28;;;10.24;100.00
21960;BME280;11144;43.030;25.108;2022-10-23T01:44:52;99494.81;;;10.23;100.00
21960;BME280;11144;43.030;25.108;2022-10-23T01:46:26;99500.09;;;10.23;100.00
21960;BME280;11144;43.030;25.108;2022-10-23T01:48:01;99499.25;;;10.22;100.00
21960;BME280;11144;43.030;25.108;2022-10-23T01:49:37;99506.22;;;10.25;100.00
21960;BME280;11144;43.030;25.108;2022-10-23T01:51:13;99506.25;;;10.23;100.00
21960;BME280;11144;43.030;25.108;2022-10-23T01:52:47;99500.00;;;10.26;100.00
21960;BME280;11144;43.030;25.108;2022-10-23T01:54:23;99503.56;;;10.25;100.00
21960;BME280;11144;43.030;25.108;2022-10-23T01:55:58;99515.84;;;10.26;100.00
21960;BME280;11144;43.030;25.108;2022-10-23T01:57:36;99510.56;;;10.26;100.00
21960;BME280;11144;43.030;25.108;2022-10-23T01:59:13;99508.75;;;10.28;100.00
21960;BME280;11144;43.030;25.108;2022-10-23T02:00:52;99505.19;;;10.29;100.00
21960;BME280;11144;43.030;25.108;2022-10-23T02:02:29;99517.41;;;10.33;100.00
21960;BME280;11144;43.030;25.108;2022-10-23T02:04:09;99523.56;;;10.33;100.00
21960;BME280;11144;43.030;25.108;2022-10-23T02:05:44;99527.09;;;10.32;100.00
21960;BME280;11144;43.030;25.108;2022-10-23T02:07:17;99529.69;;;10.34;100.00
21960;BME280;11144;43.030;25.108;2022-10-23T02:08:51;99532.28;;;10.35;100.00
21960;BME280;11144;43.030;25.108;2022-10-23T02:10:30;99536.59;;;10.38;100.00
21960;BME280;11144;43.030;25.108;2022-10-23T02:12:06;99543.53;;;10.42;100.00
21960;BME280;11144;43.030;25.108;2022-10-23T02:13:44;99547.03;;;10.43;100.00
21960;BME280;11144;43.030;25.108;2022-10-23T02:15:26;99539.94;;;10.45;100.00
21960;BME280;11144;43.030;25.108;2022-10-23T02:17:08;99551.31;;;10.47;100.00
21960;BME280;11144;43.030;25.108;2022-10-23T02:18:53;99553.03;;;10.48;100.00
21960;BME280;11144;43.030;25.108;2022-10-23T02:20:35;99552.19;;;10.47;100.00
21960;BME280;11144;43.030;25.108;2022-10-23T02:22:12;99550.47;;;10.46;100.00
21960;BME280;11144;43.030;25.108;2022-10-23T02:23:50;99553.22;;;10.43;100.00
21960;BME280;11144;43.030;25.108;2022-10-23T02:25:31;99560.34;;;10.39;100.00
21960;BME280;11144;43.030;25.108;2022-10-23T02:27:10;99564.84;;;10.38;100.00
21960;BME280;11144;43.030;25.108;2022-10-23T02:28:48;99565.06;;;10.30;100.00
21960;BME280;11144;43.030;25.108;2022-10-23T02:30:24;99576.63;;;10.26;100.00
21960;BME280;11144;43.030;25.108;2022-10-23T02:32:12;99582.84;;;10.25;100.00
21960;BME280;11144;43.030;25.108;2022-10-23T02:33:47;99574.00;;;10.26;100.00
21960;BME280;11144;43.030;25.108;2022-10-23T02:35:21;99583.00;;;10.19;100.00
21960;BME280;11144;43.030;25.108;2022-10-23T02:37:02;99602.38;;;10.19;100.00
21960;BME280;11144;43.030;25.108;2022-10-23T02:38:38;99564.94;;;10.05;100.00
21960;BME280;11144;43.030;25.108;2022-10-23T02:40:12;99603.34;;;10.17;100.00
21960;BME280;11144;43.030;25.108;2022-10-23T02:41:52;99611.38;;;10.14;100.00
21960;BME280;11144;43.030;25.108;2022-10-23T02:43:32;99609.81;;;10.07;100.00
21960;BME280;11144;43.030;25.108;2022-10-23T02:45:11;99614.94;;;10.13;100.00
21960;BME280;11144;43.030;25.108;2022-10-23T02:46:52;99601.16;;;10.00;100.00
21960;BME280;11144;43.030;25.108;2022-10-23T02:48:33;99613.50;;;10.00;100.00
21960;BME280;11144;43.030;25.108;2022-10-23T02:50:20;99613.59;;;9.97;100.00
21960;BME280;11144;43.030;25.108;2022-10-23T02:52:05;99611.88;;;9.96;100.00
21960;BME280;11144;43.030;25.108;2022-10-23T02:53:46;99631.22;;;9.96;100.00
21960;BME280;11144;43.030;25.108;2022-10-23T02:55:33;99619.06;;;9.91;100.00
21960;BME280;11144;43.030;25.108;2022-10-23T02:57:18;99636.72;;;9.89;100.00
21960;BME280;11144;43.030;25.108;2022-10-23T02:58:58;99629.59;;;9.92;100.00
21960;BME280;11144;43.030;25.108;2022-10-23T03:00:38;99626.88;;;9.94;100.00
21960;BME280;11144;43.030;25.108;2022-10-23T03:02:18;99633.00;;;9.96;100.00
21960;BME280;11144;43.030;25.108;2022-10-23T03:03:56;99639.91;;;10.00;100.00
21960;BME280;11144;43.030;25.108;2022-10-23T03:05:34;99633.63;;;10.04;100.00
21960;BME280;11144;43.030;25.108;2022-10-23T03:07:09;99634.44;;;10.09;100.00
21960;BME280;11144;43.030;25.108;2022-10-23T03:08:48;99651.88;;;10.14;100.00
21960;BME280;11144;43.030;25.108;2022-10-23T03:10:22;99649.34;;;10.10;100.00
21960;BME280;11144;43.030;25.108;2022-10-23T03:11:56;99646.00;;;10.03;100.00
21960;BME280;11144;43.030;25.108;2022-10-23T03:13:30;99649.53;;;10.02;100.00
21960;BME280;11144;43.030;25.108;2022-10-23T03:15:03;99649.59;;;9.99;100.00
21960;BME280;11144;43.030;25.108;2022-10-23T03:16:36;99653.13;;;10.00;100.00
21960;BME280;11144;43.030;25.108;2022-10-23T03:18:10;99655.84;;;9.97;100.00
21960;BME280;11144;43.030;25.108;2022-10-23T03:19:47;99659.25;;;10.02;100.00
21960;BME280;11144;43.030;25.108;2022-10-23T03:21:20;99662.69;;;10.05;100.00
21960;BME280;11144;43.030;25.108;2022-10-23T03:22:56;99662.66;;;10.07;100.00
21960;BME280;11144;43.030;25.108;2022-10-23T03:24:30;99650.28;;;10.09;100.00
21960;BME280;11144;43.030;25.108;2022-10-23T03:26:04;99657.50;;;10.01;100.00
21960;BME280;11144;43.030;25.108;2022-10-23T03:27:41;99671.50;;;10.06;100.00
21960;BME280;11144;43.030;25.108;2022-10-23T03:29:19;99683.72;;;10.10;100.00
21960;BME280;11144;43.030;25.108;2022-10-23T03:30:53;99689.00;;;10.10;100.00
21960;BME280;11144;43.030;25.108;2022-10-23T03:32:27;99676.41;;;10.18;100.00
21960;BME280;11144;43.030;25.108;2022-10-23T03:34:00;99673.63;;;10.24;100.00
21960;BME280;11144;43.030;25.108;2022-10-23T03:35:40;99683.94;;;10.31;100.00
21960;BME280;11144;43.030;25.108;2022-10-23T03:37:17;99689.19;;;10.33;100.00
21960;BME280;11144;43.030;25.108;2022-10-23T03:38:50;99680.22;;;10.38;100.00
21960;BME280;11144;43.030;25.108;2022-10-23T03:40:24;99682.81;;;10.40;100.00
21960;BME280;11144;43.030;25.108;2022-10-23T03:41:57;99690.63;;;10.45;100.00
21960;BME280;11144;43.030;25.108;2022-10-23T03:43:32;99685.28;;;10.46;100.00
21960;BME280;11144;43.030;25.108;2022-10-23T03:45:06;99692.22;;;10.50;100.00
21960;BME280;11144;43.030;25.108;2022-10-23T03:46:40;99686.00;;;10.51;100.00
21960;BME280;11144;43.030;25.108;2022-10-23T03:48:14;99691.47;;;10.45;100.00
21960;BME280;11144;43.030;25.108;2022-10-23T03:49:48;99679.09;;;10.47;100.00
21960;BME280;11144;43.030;25.108;2022-10-23T03:51:24;99690.66;;;10.43;100.00
21960;BME280;11144;43.030;25.108;2022-10-23T03:52:57;99693.31;;;10.43;100.00
21960;BME280;11144;43.030;25.108;2022-10-23T03:54:31;99682.69;;;10.45;100.00
21960;BME280;11144;43.030;25.108;2022-10-23T03:56:05;99687.19;;;10.41;100.00
21960;BME280;11144;43.030;25.108;2022-10-23T03:57:38;99697.84;;;10.38;100.00
21960;BME280;11144;43.030;25.108;2022-10-23T03:59:11;99693.63;;;10.31;100.00
21960;BME280;11144;43.030;25.108;2022-10-23T04:00:44;99691.84;;;10.33;100.00
21960;BME280;11144;43.030;25.108;2022-10-23T04:02:18;99693.56;;;10.34;100.00
21960;BME280;11144;43.030;25.108;2022-10-23T04:03:51;99686.72;;;10.27;100.00
21960;BME280;11144;43.030;25.108;2022-10-23T04:05:26;99695.66;;;10.23;100.00
21960;BME280;11144;43.030;25.108;2022-10-23T04:07:03;99694.78;;;10.22;100.00
21960;BME280;11144;43.030;25.108;2022-10-23T04:08:37;99701.81;;;10.23;100.00
21960;BME280;11144;43.030;25.108;2022-10-23T04:10:17;99707.97;;;10.24;100.00
21960;BME280;11144;43.030;25.108;2022-10-23T04:11:50;99700.94;;;10.23;100.00
21960;BME280;11144;43.030;25.108;2022-10-23T04:13:23;99708.81;;;10.24;100.00
21960;BME280;11144;43.030;25.108;2022-10-23T04:14:56;99710.50;;;10.27;100.00
21960;BME280;11144;43.030;25.108;2022-10-23T04:16:30;99701.97;;;10.17;100.00
21960;BME280;11144;43.030;25.108;2022-10-23T04:18:04;99717.50;;;10.29;100.00
21960;BME280;11144;43.030;25.108;2022-10-23T04:19:37;99714.13;;;10.23;100.00
21960;BME280;11144;43.030;25.108;2022-10-23T04:21:10;99703.56;;;10.23;100.00
21960;BME280;11144;43.030;25.108;2022-10-23T04:22:45;99702.50;;;10.30;100.00
21960;BME280;11144;43.030;25.108;2022-10-23T04:24:18;99704.22;;;10.31;100.00
21960;BME280;11144;43.030;25.108;2022-10-23T04:25:55;99700.59;;;10.35;100.00
21960;BME280;11144;43.030;25.108;2022-10-23T04:27:29;99709.34;;;10.37;100.00
21960;BME280;11144;43.030;25.108;2022-10-23T04:29:03;99700.47;;;10.38;100.00
21960;BME280;11144;43.030;25.108;2022-10-23T04:30:36;99711.25;;;10.32;100.00
21960;BME280;11144;43.030;25.108;2022-10-23T04:32:10;99694.47;;;10.33;100.00
21960;BME280;11144;43.030;25.108;2022-10-23T04:33:43;99700.41;;;10.41;100.00
21960;BME280;11144;43.030;25.108;2022-10-23T04:35:30;99699.31;;;10.48;100.00
21960;BME280;11144;43.030;25.108;2022-10-23T04:37:03;99702.69;;;10.53;100.00
21960;BME280;11144;43.030;25.108;2022-10-23T04:38:38;99704.38;;;10.56;100.00
21960;BME280;11144;43.030;25.108;2022-10-23T04:40:11;99711.31;;;10.60;100.00
21960;BME280;11144;43.030;25.108;2022-10-23T04:41:44;99705.06;;;10.62;100.00
21960;BME280;11144;43.030;25.108;2022-10-23T04:43:18;99699.78;;;10.62;100.00
21960;BME280;11144;43.030;25.108;2022-10-23T04:44:51;99705.06;;;10.62;100.00
21960;BME280;11144;43.030;25.108;2022-10-23T04:46:24;99697.88;;;10.66;100.00
21960;BME280;11144;43.030;25.108;2022-10-23T04:47:57;99704.00;;;10.68;100.00
21960;BME280;11144;43.030;25.108;2022-10-23T04:49:34;99713.63;;;10.70;100.00
21960;BME280;11144;43.030;25.108;2022-10-23T04:51:36;99715.34;;;10.71;100.00
21960;BME280;11144;43.030;25.108;2022-10-23T04:53:28;99713.63;;;10.70;100.00
21960;BME280;11144;43.030;25.108;2022-10-23T04:55:18;99716.19;;;10.73;100.00
21960;BME280;11144;43.030;25.108;2022-10-23T04:57:14;99722.25;;;10.77;100.00
21960;BME280;11144;43.030;25.108;2022-10-23T04:58:58;99729.31;;;10.76;100.00
21960;BME280;11144;43.030;25.108;2022-10-23T05:00:33;99729.13;;;10.82;100.00
21960;BME280;11144;43.030;25.108;2022-10-23T05:02:06;99722.09;;;10.81;100.00
21960;BME280;11144;43.030;25.108;2022-10-23T05:03:40;99723.94;;;10.79;100.00
21960;BME280;11144;43.030;25.108;2022-10-23T05:05:13;99728.31;;;10.80;100.00
21960;BME280;11144;43.030;25.108;2022-10-23T05:07:05;99734.16;;;10.91;100.00
21960;BME280;11144;43.030;25.108;2022-10-23T05:09:06;99739.34;;;10.94;100.00
21960;BME280;11144;43.030;25.108;2022-10-23T05:10:49;99739.16;;;11.00;100.00
21960;BME280;11144;43.030;25.108;2022-10-23T05:12:22;99733.84;;;11.00;100.00
21960;BME280;11144;43.030;25.108;2022-10-23T05:13:56;99741.78;;;11.00;100.00
21960;BME280;11144;43.030;25.108;2022-10-23T05:15:31;99735.56;;;11.01;100.00
21960;BME280;11144;43.030;25.108;2022-10-23T05:17:08;99709.41;;;10.92;100.00
21960;BME280;11144;43.030;25.108;2022-10-23T05:18:45;99734.69;;;11.02;100.00
21960;BME280;11144;43.030;25.108;2022-10-23T05:20:22;99740.88;;;11.01;100.00
21960;BME280;11144;43.030;25.108;2022-10-23T05:21:56;99737.44;;;10.99;100.00
21960;BME280;11144;43.030;25.108;2022-10-23T05:23:36;99737.44;;;10.99;100.00
21960;BME280;11144;43.030;25.108;2022-10-23T05:25:11;99739.16;;;11.00;100.00
21960;BME280;11144;43.030;25.108;2022-10-23T05:26:50;99732.94;;;11.01;100.00
21960;BME280;11144;43.030;25.108;2022-10-23T05:28:24;99734.81;;;10.98;100.00
21960;BME280;11144;43.030;25.108;2022-10-23T05:29:58;99741.06;;;10.95;100.00
21960;BME280;11144;43.030;25.108;2022-10-23T05:31:34;99738.34;;;10.98;100.00
21960;BME280;11144;43.030;25.108;2022-10-23T05:33:14;99734.94;;;10.93;100.00
21960;BME280;11144;43.030;25.108;2022-10-23T05:34:48;99737.34;;;11.02;100.00
21960;BME280;11144;43.030;25.108;2022-10-23T05:36:23;99730.09;;;11.07;100.00
21960;BME280;11144;43.030;25.108;2022-10-23T05:38:01;99736.84;;;11.17;100.00
21960;BME280;11144;43.030;25.108;2022-10-23T05:39:36;99747.09;;;11.28;100.00
21960;BME280;11144;43.030;25.108;2022-10-23T05:41:14;99743.19;;;11.39;100.00
21960;BME280;11144;43.030;25.108;2022-10-23T05:42:49;99750.69;;;11.53;100.00
21960;BME280;11144;43.030;25.108;2022-10-23T05:44:29;99748.75;;;11.58;100.00
21960;BME280;11144;43.030;25.108;2022-10-23T05:46:19;99752.06;;;11.66;100.00
21960;BME280;11144;43.030;25.108;2022-10-23T05:48:16;99759.03;;;11.68;100.00
21960;BME280;11144;43.030;25.108;2022-10-23T05:50:25;99756.38;;;11.68;100.00
21960;BME280;11144;43.030;25.108;2022-10-23T05:52:18;99761.47;;;11.74;100.00
21960;BME280;11144;43.030;25.108;2022-10-23T05:54:08;99759.50;;;11.81;100.00
21960;BME280;11144;43.030;25.108;2022-10-23T05:56:10;99772.22;;;11.96;100.00
21960;BME280;11144;43.030;25.108;2022-10-23T05:57:49;99763.06;;;12.04;100.00
21960;BME280;11144;43.030;25.108;2022-10-23T05:59:33;99768.22;;;12.09;100.00
21960;BME280;11144;43.030;25.108;2022-10-23T06:01:25;99771.50;;;12.15;100.00
21960;BME280;11144;43.030;25.108;2022-10-23T06:03:03;99764.16;;;12.23;100.00
21960;BME280;11144;43.030;25.108;2022-10-23T06:04:43;99767.47;;;12.30;100.00
21960;BME280;11144;43.030;25.108;2022-10-23T06:06:35;99770.81;;;12.35;100.00
21960;BME280;11144;43.030;25.108;2022-10-23T06:08:08;99771.13;;;12.50;100.00
21960;BME280;11144;43.030;25.108;2022-10-23T06:09:42;99772.88;;;12.97;100.00
21960;BME280;11144;43.030;25.108;2022-10-23T06:11:16;99783.09;;;13.52;100.00
21960;BME280;11144;43.030;25.108;2022-10-23T06:13:00;99794.16;;;14.27;100.00
21960;BME280;11144;43.030;25.108;2022-10-23T06:14:34;99795.75;;;14.89;100.00
21960;BME280;11144;43.030;25.108;2022-10-23T06:16:08;99779.56;;;15.49;100.00
21960;BME280;11144;43.030;25.108;2022-10-23T06:17:42;99775.84;;;16.06;100.00
21960;BME280;11144;43.030;25.108;2022-10-23T06:19:16;99774.13;;;16.56;100.00
21960;BME280;11144;43.030;25.108;2022-10-23T06:20:53;99770.50;;;16.74;100.00
21960;BME280;11144;43.030;25.108;2022-10-23T06:22:29;99768.31;;;17.13;100.00
21960;BME280;11144;43.030;25.108;2022-10-23T06:24:14;99764.44;;;17.65;100.00
21960;BME280;11144;43.030;25.108;2022-10-23T06:25:52;99764.78;;;18.20;100.00
21960;BME280;11144;43.030;25.108;2022-10-23T06:27:35;99767.66;;;18.60;100.00
21960;BME280;11144;43.030;25.108;2022-10-23T06:29:11;99752.56;;;18.73;100.00
21960;BME280;11144;43.030;25.108;2022-10-23T06:30:46;99765.19;;;18.99;100.00
21960;BME280;11144;43.030;25.108;2022-10-23T06:32:19;99766.31;;;19.37;100.00
21960;BME280;11144;43.030;25.108;2022-10-23T06:34:13;99764.09;;;19.84;100.00
21960;BME280;11144;43.030;25.108;2022-10-23T06:35:46;99764.53;;;20.18;100.00
21960;BME280;11144;43.030;25.108;2022-10-23T06:37:20;99763.88;;;20.66;100.00
21960;BME280;11144;43.030;25.108;2022-10-23T06:39:03;99762.03;;;21.04;100.00
21960;BME280;11144;43.030;25.108;2022-10-23T06:41:01;99759.22;;;21.30;100.00
21960;BME280;11144;43.030;25.108;2022-10-23T06:42:39;99762.16;;;21.51;100.00
21960;BME280;11144;43.030;25.108;2022-10-23T06:44:32;99768.53;;;21.50;100.00
21960;BME280;11144;43.030;25.108;2022-10-23T06:46:12;99780.19;;;21.74;100.00
21960;BME280;11144;43.030;25.108;2022-10-23T06:48:09;99767.91;;;21.70;100.00
21960;BME280;11144;43.030;25.108;2022-10-23T06:49:45;99770.25;;;21.87;100.00
21960;BME280;11144;43.030;25.108;2022-10-23T06:51:19;99774.25;;;21.81;100.00
21960;BME280;11144;43.030;25.108;2022-10-23T06:52:53;99771.53;;;21.94;100.00
21960;BME280;11144;43.030;25.108;2022-10-23T06:54:26;99771.78;;;22.02;100.00
21960;BME280;11144;43.030;25.108;2022-10-23T06:56:15;99774.84;;;22.32;100.00
21960;BME280;11144;43.030;25.108;2022-10-23T06:57:52;99771.81;;;22.60;100.00
21960;BME280;11144;43.030;25.108;2022-10-23T06:59:25;99777.72;;;22.76;100.00
21960;BME280;11144;43.030;25.108;2022-10-23T07:01:01;99769.88;;;22.84;100.00
21960;BME280;11144;43.030;25.108;2022-10-23T07:02:34;99771.56;;;22.85;100.00
21960;BME280;11144;43.030;25.108;2022-10-23T07:04:08;99779.91;;;22.71;100.00
21960;BME280;11144;43.030;25.108;2022-10-23T07:05:45;99760.78;;;22.85;100.00
21960;BME280;11144;43.030;25.108;2022-10-23T07:07:19;99784.13;;;23.08;100.00
21960;BME280;11144;43.030;25.108;2022-10-23T07:08:53;99783.38;;;22.95;100.00
21960;BME280;11144;43.030;25.108;2022-10-23T07:10:45;99794.63;;;22.67;100.00
21960;BME280;11144;43.030;25.108;2022-10-23T07:12:23;99793.41;;;22.71;100.00
21960;BME280;11144;43.030;25.108;2022-10-23T07:14:11;99788.22;;;22.57;100.00
21960;BME280;11144;43.030;25.108;2022-10-23T07:15:44;99783.75;;;22.45;100.00
21960;BME280;11144;43.030;25.108;2022-10-23T07:17:22;99791.63;;;22.59;100.00
21960;BME280;11144;43.030;25.108;2022-10-23T07:18:58;99789.75;;;22.83;100.00
21960;BME280;11144;43.030;25.108;2022-10-23T07:20:32;99790.97;;;22.79;100.00
21960;BME280;11144;43.030;25.108;2022-10-23T07:22:05;99792.44;;;22.94;100.00
21960;BME280;11144;43.030;25.108;2022-10-23T07:24:13;99793.03;;;22.86;100.00
21960;BME280;11144;43.030;25.108;2022-10-23T07:25:47;99799.31;;;22.98;100.00
21960;BME280;11144;43.030;25.108;2022-10-23T07:27:25;99795.72;;;22.75;100.00
21960;BME280;11144;43.030;25.108;2022-10-23T07:29:01;99799.28;;;22.76;100.00
21960;BME280;11144;43.030;25.108;2022-10-23T07:30:36;99794.41;;;23.14;100.00
21960;BME280;11144;43.030;25.108;2022-10-23T07:32:12;99793.63;;;23.36;100.00
21960;BME280;11144;43.030;25.108;2022-10-23T07:34:19;99794.97;;;23.30;100.00
21960;BME280;11144;43.030;25.108;2022-10-23T07:36:07;99800.44;;;23.18;100.00
21960;BME280;11144;43.030;25.108;2022-10-23T07:37:40;99805.75;;;23.30;100.00
21960;BME280;11144;43.030;25.108;2022-10-23T07:39:14;99803.31;;;23.38;100.00
21960;BME280;11144;43.030;25.108;2022-10-23T07:40:56;99795.53;;;23.12;100.00
21960;BME280;11144;43.030;25.108;2022-10-23T07:42:30;99808.34;;;23.32;100.00
21960;BME280;11144;43.030;25.108;2022-10-23T07:44:03;99813.84;;;23.63;100.00
21960;BME280;11144;43.030;25.108;2022-10-23T07:45:36;99796.63;;;23.75;100.00
21960;BME280;11144;43.030;25.108;2022-10-23T07:47:23;99810.38;;;23.94;100.00
21960;BME280;11144;43.030;25.108;2022-10-23T07:48:56;99813.81;;;23.85;100.00
21960;BME280;11144;43.030;25.108;2022-10-23T07:50:31;99809.19;;;23.54;100.00
21960;BME280;11144;43.030;25.108;2022-10-23T07:52:05;99802.31;;;23.50;100.00
21960;BME280;11144;43.030;25.108;2022-10-23T07:53:58;99814.81;;;23.29;100.00
21960;BME280;11144;43.030;25.108;2022-10-23T07:55:52;99807.59;;;23.30;100.00
21960;BME280;11144;43.030;25.108;2022-10-23T07:57:26;99804.75;;;23.20;100.00
21960;BME280;11144;43.030;25.108;2022-10-23T07:59:10;99801.91;;;23.11;100.00
21960;BME280;11144;43.030;25.108;2022-10-23T08:00:46;99798.91;;;23.26;100.00
21960;BME280;11144;43.030;25.108;2022-10-23T08:02:30;99801.56;;;23.15;100.00
21960;BME280;11144;43.030;25.108;2022-10-23T08:04:04;99813.47;;;23.35;100.00
21960;BME280;11144;43.030;25.108;2022-10-23T08:05:44;99810.91;;;23.44;100.00
21960;BME280;11144;43.030;25.108;2022-10-23T08:07:17;99806.47;;;23.43;100.00
21960;BME280;11144;43.030;25.108;2022-10-23T08:08:52;99808.19;;;23.22;100.00
21960;BME280;11144;43.030;25.108;2022-10-23T08:10:26;99816.00;;;23.14;100.00
21960;BME280;11144;43.030;25.108;2022-10-23T08:12:00;99815.22;;;23.36;100.00
21960;BME280;11144;43.030;25.108;2022-10-23T08:13:33;99816.56;;;23.52;100.00
21960;BME280;11144;43.030;25.108;2022-10-23T08:15:09;99811.41;;;23.49;100.00
21960;BME280;11144;43.030;25.108;2022-10-23T08:16:54;99819.25;;;23.41;100.00
21960;BME280;11144;43.030;25.108;2022-10-23T08:19:00;99821.56;;;23.68;100.00
21960;BME280;11144;43.030;25.108;2022-10-23T08:20:37;99814.06;;;23.82;100.00
21960;BME280;11144;43.030;25.108;2022-10-23T08:22:14;99813.56;;;23.66;100.00
21960;BME280;11144;43.030;25.108;2022-10-23T08:23:48;99807.81;;;23.60;100.00
21960;BME280;11144;43.030;25.108;2022-10-23T08:25:21;99805.88;;;23.29;100.00
21960;BME280;11144;43.030;25.108;2022-10-23T08:26:57;99801.84;;;23.34;100.00
21960;BME280;11144;43.030;25.108;2022-10-23T08:28:34;99807.72;;;23.28;100.00